createdAt,value
2022-07-29T00:01:21.136Z,9.00
2022-07-29T00:04:22.872Z,9.00
2022-07-29T00:07:24.952Z,8.17
2022-07-29T00:10:26.578Z,8.60
2022-07-29T00:13:32.315Z,8.33
2022-07-29T00:16:34.585Z,8.73
2022-07-29T00:19:36.282Z,7.97
2022-07-29T00:22:38.467Z,8.73
2022-07-29T00:25:40.200Z,8.50
2022-07-29T00:28:41.911Z,8.80
2022-07-29T00:31:43.729Z,9.00
2022-07-29T00:35:04.100Z,8.50
2022-07-29T00:38:05.724Z,9.20
2022-07-29T00:41:07.349Z,8.90
2022-07-29T00:44:09.028Z,8.93
2022-07-29T00:47:11.962Z,9.43
2022-07-29T00:50:14.088Z,9.77
2022-07-29T00:53:15.769Z,9.97
2022-07-29T00:56:17.392Z,9.50
2022-07-29T00:59:19.048Z,8.83
2022-07-29T01:02:20.701Z,8.83
2022-07-29T01:05:24.140Z,8.60
2022-07-29T01:08:25.945Z,9.13
2022-07-29T01:11:27.649Z,8.20
2022-07-29T01:14:29.628Z,8.70
2022-07-29T01:17:37.818Z,8.87
2022-07-29T01:20:58.068Z,9.00
2022-07-29T01:24:08.592Z,9.37
2022-07-29T01:27:13.079Z,9.30
2022-07-29T01:30:18.149Z,8.97
2022-07-29T01:33:40.172Z,8.93
2022-07-29T01:36:45.743Z,8.83
2022-07-29T01:39:48.702Z,9.70
2022-07-29T01:42:52.607Z,9.47
2022-07-29T01:45:57.381Z,9.27
2022-07-29T01:49:03.020Z,9.17
2022-07-29T01:52:06.814Z,9.87
2022-07-29T01:55:12.893Z,9.03
2022-07-29T01:58:15.340Z,8.97
2022-07-29T02:01:17.244Z,8.97
2022-07-29T02:04:29.111Z,9.00
2022-07-29T02:07:33.228Z,8.60
2022-07-29T02:10:36.098Z,8.97
2022-07-29T02:13:37.951Z,9.07
2022-07-29T02:16:41.582Z,8.87
2022-07-29T02:19:44.248Z,8.97
2022-07-29T02:22:46.558Z,8.37
2022-07-29T02:25:53.754Z,8.47
2022-07-29T02:28:56.512Z,8.13
2022-07-29T02:32:00.441Z,7.90
2022-07-29T02:35:02.892Z,7.70
2022-07-29T02:38:23.217Z,7.50
2022-07-29T02:41:27.285Z,7.80
2022-07-29T02:44:34.805Z,7.70
2022-07-29T02:47:41.866Z,8.50
2022-07-29T02:50:51.087Z,8.27
2022-07-29T02:53:54.595Z,8.83
2022-07-29T02:56:59.258Z,8.40
2022-07-29T03:00:05.246Z,8.27
2022-07-29T03:03:10.057Z,8.57
2022-07-29T03:06:28.843Z,7.93
2022-07-29T03:09:35.377Z,9.13
2022-07-29T03:12:37.229Z,8.90
2022-07-29T03:15:39.351Z,8.73
2022-07-29T03:18:41.475Z,8.87
2022-07-29T03:21:43.114Z,9.43
2022-07-29T03:24:44.743Z,8.90
2022-07-29T03:27:49.423Z,9.27
2022-07-29T03:30:51.298Z,8.27
2022-07-29T03:33:53.301Z,8.00
2022-07-29T03:36:54.917Z,8.40
2022-07-29T03:39:56.759Z,8.77
2022-07-29T03:43:00.168Z,8.73
2022-07-29T03:46:02.868Z,7.60
2022-07-29T03:49:05.322Z,7.90
2022-07-29T03:52:07.308Z,7.87
2022-07-29T03:55:09.640Z,8.40
2022-07-29T03:58:12.279Z,8.73
2022-07-29T04:01:14.280Z,8.77
2022-07-29T04:04:16.199Z,8.53
2022-07-29T04:07:18.175Z,8.43
2022-07-29T04:10:30.612Z,7.53
2022-07-29T04:13:33.791Z,8.00
2022-07-29T04:16:35.609Z,7.63
2022-07-29T04:19:37.337Z,7.70
2022-07-29T04:22:38.990Z,7.50
2022-07-29T04:25:41.200Z,7.07
2022-07-29T04:28:43.868Z,7.63
2022-07-29T04:31:45.824Z,7.23
2022-07-29T04:34:47.705Z,7.63
2022-07-29T04:37:49.366Z,7.33
2022-07-29T04:40:51.044Z,8.07
2022-07-29T04:43:52.782Z,8.87
2022-07-29T04:46:54.878Z,7.17
2022-07-29T04:49:57.291Z,6.57
2022-07-29T04:52:59.217Z,7.00
2022-07-29T04:56:00.878Z,7.60
2022-07-29T04:59:02.569Z,6.70
2022-07-29T05:02:04.370Z,6.37
2022-07-29T05:05:06.555Z,6.53
2022-07-29T05:08:08.271Z,6.00
2022-07-29T05:11:12.224Z,6.50
2022-07-29T05:14:14.655Z,6.23
2022-07-29T05:17:16.529Z,6.43
2022-07-29T05:20:19.425Z,6.00
2022-07-29T05:23:21.208Z,6.00
2022-07-29T05:26:22.801Z,6.23
2022-07-29T05:29:43.270Z,6.03
2022-07-29T05:32:46.768Z,5.47
2022-07-29T05:35:48.352Z,5.40
2022-07-29T05:38:50.132Z,5.33
2022-07-29T05:41:52.156Z,5.47
2022-07-29T05:44:54.231Z,5.43
2022-07-29T05:47:55.860Z,5.80
2022-07-29T05:50:57.494Z,5.97
2022-07-29T05:53:59.356Z,6.23
2022-07-29T05:57:00.934Z,6.07
2022-07-29T06:00:03.057Z,5.93
2022-07-29T06:03:13.913Z,5.50
2022-07-29T06:06:15.558Z,5.40
2022-07-29T06:09:17.225Z,5.20
2022-07-29T06:12:18.845Z,4.72
2022-07-29T06:15:20.684Z,4.50
2022-07-29T06:18:24.756Z,4.32
2022-07-29T06:21:26.577Z,4.32
2022-07-29T06:24:28.199Z,4.80
2022-07-29T06:27:30.729Z,3.90
2022-07-29T06:30:32.470Z,4.38
2022-07-29T06:33:34.540Z,4.68
2022-07-29T06:36:37.754Z,4.47
2022-07-29T06:39:39.450Z,4.28
2022-07-29T06:42:44.636Z,4.30
2022-07-29T06:45:46.788Z,4.30
2022-07-29T06:48:49.223Z,4.13
2022-07-29T06:51:51.133Z,4.50
2022-07-29T06:54:52.753Z,4.55
2022-07-29T06:57:54.529Z,4.70
2022-07-29T07:00:57.008Z,7.05
2022-07-29T07:03:58.646Z,6.05
2022-07-29T07:07:00.652Z,6.47
2022-07-29T07:10:02.410Z,5.43
2022-07-29T07:13:05.292Z,5.35
2022-07-29T07:16:07.527Z,3.92
2022-07-29T07:19:09.412Z,4.63
2022-07-29T07:22:11.030Z,5.78
2022-07-29T07:25:13.227Z,4.85
2022-07-29T07:28:14.858Z,3.40
2022-07-29T07:31:16.662Z,2.85
2022-07-29T07:34:25.696Z,3.22
2022-07-29T07:37:31.467Z,3.08
2022-07-29T07:40:33.251Z,3.10
2022-07-29T07:43:35.015Z,3.00
2022-07-29T07:46:36.667Z,2.80
2022-07-29T07:49:40.303Z,3.15
2022-07-29T07:52:50.254Z,2.63
2022-07-29T07:59:13.553Z,2.92
2022-07-29T08:02:15.298Z,3.08
2022-07-29T08:05:18.065Z,2.88
2022-07-29T08:08:19.779Z,3.22
2022-07-29T08:11:21.583Z,3.03
2022-07-29T08:14:23.233Z,3.20
2022-07-29T08:17:24.942Z,3.15
2022-07-29T08:20:27.150Z,2.97
2022-07-29T08:23:46.017Z,3.17
2022-07-29T08:26:50.503Z,3.10
2022-07-29T08:29:52.055Z,3.40
2022-07-29T08:32:55.500Z,3.03
2022-07-29T08:35:57.601Z,3.78
2022-07-29T08:38:59.240Z,3.40
2022-07-29T08:42:01.224Z,3.40
2022-07-29T08:45:03.701Z,3.40
2022-07-29T08:48:05.421Z,3.47
2022-07-29T08:51:19.031Z,3.20
2022-07-29T08:54:21.025Z,3.20
2022-07-29T08:57:23.017Z,3.67
2022-07-29T09:00:26.203Z,3.55
2022-07-29T09:03:31.215Z,4.20
2022-07-29T09:06:35.147Z,3.78
2022-07-29T09:09:37.050Z,3.58
2022-07-29T09:12:38.981Z,3.42
2022-07-29T09:15:40.621Z,3.40
2022-07-29T09:18:43.816Z,3.35
2022-07-29T09:22:03.006Z,3.35
2022-07-29T09:25:05.812Z,3.30
2022-07-29T09:28:08.882Z,3.30
2022-07-29T09:31:10.624Z,3.17
2022-07-29T09:34:13.267Z,3.30
2022-07-29T09:37:27.068Z,3.60
2022-07-29T09:40:29.561Z,3.90
2022-07-29T09:43:31.465Z,3.83
2022-07-29T09:46:33.243Z,4.00
2022-07-29T09:49:35.424Z,3.90
2022-07-29T09:52:46.164Z,4.13
2022-07-29T09:55:49.328Z,3.95
2022-07-29T09:59:06.336Z,4.00
2022-07-29T10:02:20.305Z,4.57
2022-07-29T10:05:27.071Z,3.83
2022-07-29T10:08:38.671Z,4.50
2022-07-29T10:11:49.442Z,4.10
2022-07-29T10:14:51.743Z,4.70
2022-07-29T10:17:54.193Z,4.50
2022-07-29T10:20:55.842Z,4.68
2022-07-29T10:24:01.106Z,4.13
2022-07-29T10:27:03.845Z,4.55
2022-07-29T10:30:05.789Z,4.15
2022-07-29T10:33:16.049Z,4.57
2022-07-29T10:36:33.151Z,4.50
2022-07-29T10:39:48.961Z,4.68
2022-07-29T10:42:53.496Z,4.82
2022-07-29T10:46:00.227Z,4.30
2022-07-29T10:49:15.553Z,4.22
2022-07-29T10:52:18.051Z,4.50
2022-07-29T10:55:45.437Z,4.55
2022-07-29T10:59:09.353Z,4.63
2022-07-29T11:05:55.308Z,4.40
2022-07-29T11:09:15.661Z,4.22
2022-07-29T11:12:36.729Z,4.30
2022-07-29T11:15:54.361Z,4.35
2022-07-29T11:19:13.403Z,4.65
2022-07-29T11:22:47.793Z,4.15
2022-07-29T11:26:08.996Z,4.07
2022-07-29T11:29:25.623Z,4.50
2022-07-29T11:32:37.366Z,4.50
2022-07-29T11:35:39.863Z,4.35
2022-07-29T11:38:42.407Z,4.25
2022-07-29T11:41:44.144Z,4.40
2022-07-29T11:45:41.902Z,4.47
2022-07-29T11:48:32.468Z,4.32
2022-07-29T11:51:48.376Z,4.57
2022-07-29T11:54:57.965Z,4.50
2022-07-29T11:58:04.061Z,4.50
2022-07-29T12:01:25.238Z,4.25
2022-07-29T12:04:29.705Z,4.03
2022-07-29T12:07:32.715Z,4.60
2022-07-29T12:10:36.959Z,4.43
2022-07-29T12:13:39.996Z,4.68
2022-07-29T12:16:41.707Z,4.82
2022-07-29T12:19:44.499Z,6.82
2022-07-29T12:22:46.498Z,5.30
2022-07-29T12:25:49.927Z,4.78
2022-07-29T12:28:51.764Z,4.80
2022-07-29T12:31:57.793Z,4.85
2022-07-29T12:35:00.361Z,4.70
2022-07-29T12:38:02.075Z,4.30
2022-07-29T12:41:04.945Z,4.55
2022-07-29T12:44:06.786Z,4.50
2022-07-29T12:47:08.434Z,4.38
2022-07-29T12:50:11.232Z,4.97
2022-07-29T12:53:13.375Z,4.60
2022-07-29T12:56:41.641Z,4.20
2022-07-29T12:59:39.671Z,4.57
2022-07-29T13:02:43.585Z,4.38
2022-07-29T13:05:49.501Z,4.78
2022-07-29T13:09:01.744Z,4.50
2022-07-29T13:12:08.332Z,4.50
2022-07-29T13:15:14.401Z,4.43
2022-07-29T13:18:34.600Z,4.75
2022-07-29T13:21:36.417Z,4.68
2022-07-29T13:24:57.139Z,4.82
2022-07-29T13:27:59.652Z,4.85
2022-07-29T13:31:01.672Z,4.60
2022-07-29T13:34:03.353Z,4.88
2022-07-29T13:37:05.009Z,4.30
2022-07-29T13:40:10.337Z,4.50
2022-07-29T13:43:12.210Z,4.72
2022-07-29T13:46:13.867Z,4.53
2022-07-29T13:49:15.642Z,4.57
2022-07-29T13:52:17.899Z,4.15
2022-07-29T13:55:19.630Z,4.57
2022-07-29T13:58:21.293Z,4.28
2022-07-29T14:01:22.985Z,4.75
2022-07-29T14:04:24.914Z,4.65
2022-07-29T14:07:26.542Z,6.25
2022-07-29T14:10:28.253Z,4.70
2022-07-29T14:13:29.849Z,4.47
2022-07-29T14:16:31.567Z,4.47
2022-07-29T14:19:36.322Z,4.90
2022-07-29T14:22:42.436Z,5.07
2022-07-29T14:25:44.582Z,4.60
2022-07-29T14:28:46.746Z,4.97
2022-07-29T14:31:48.426Z,4.70
2022-07-29T14:34:50.082Z,4.72
2022-07-29T14:37:51.808Z,4.45
2022-07-29T14:40:53.515Z,4.70
2022-07-29T14:43:55.375Z,4.40
2022-07-29T14:46:57.129Z,4.53
2022-07-29T14:49:58.773Z,5.20
2022-07-29T14:53:00.804Z,4.57
2022-07-29T14:56:15.361Z,4.47
2022-07-29T14:59:24.499Z,4.60
2022-07-29T15:02:45.751Z,4.45
2022-07-29T15:05:47.742Z,4.85
2022-07-29T15:08:49.745Z,5.03
2022-07-29T15:11:51.403Z,5.03
2022-07-29T15:14:53.057Z,4.57
2022-07-29T15:17:54.905Z,4.25
2022-07-29T15:20:56.540Z,5.15
2022-07-29T15:23:58.146Z,4.47
2022-07-29T15:26:59.846Z,4.68
2022-07-29T15:30:01.843Z,4.13
2022-07-29T15:33:04.173Z,4.68
2022-07-29T15:36:06.088Z,4.03
2022-07-29T15:39:07.706Z,4.57
2022-07-29T15:42:09.378Z,4.43
2022-07-29T15:45:11.140Z,4.07
2022-07-29T15:48:14.920Z,4.20
2022-07-29T15:51:16.666Z,4.47
2022-07-29T15:54:18.299Z,4.13
2022-07-29T15:57:20.028Z,4.22
2022-07-29T16:00:22.567Z,4.32
2022-07-29T16:03:24.810Z,4.00
2022-07-29T16:06:26.607Z,4.10
2022-07-29T16:09:28.972Z,4.55
2022-07-29T16:12:30.604Z,4.53
2022-07-29T16:15:32.352Z,4.28
2022-07-29T16:18:34.750Z,4.22
2022-07-29T16:21:36.720Z,4.30
2022-07-29T16:24:39.010Z,4.07
2022-07-29T16:27:40.726Z,4.30
2022-07-29T16:30:42.472Z,4.57
2022-07-29T16:33:54.398Z,4.25
2022-07-29T16:36:57.440Z,4.38
2022-07-29T16:39:59.350Z,4.10
2022-07-29T16:43:01.017Z,4.00
2022-07-29T16:46:02.765Z,4.10
2022-07-29T16:49:04.734Z,3.85
2022-07-29T16:52:06.442Z,3.95
2022-07-29T16:55:08.425Z,4.53
2022-07-29T16:58:10.538Z,4.05
2022-07-29T17:01:12.211Z,4.15
2022-07-29T17:04:15.195Z,4.40
2022-07-29T17:07:16.874Z,4.20
2022-07-29T17:10:18.560Z,4.47
2022-07-29T17:13:20.430Z,4.72
2022-07-29T17:16:24.811Z,5.00
2022-07-29T17:19:27.052Z,4.90
2022-07-29T17:22:28.669Z,6.10
2022-07-29T17:25:30.300Z,4.85
2022-07-29T17:28:31.928Z,4.72
2022-07-29T17:31:33.562Z,4.88
2022-07-29T17:34:36.093Z,5.38
2022-07-29T17:37:37.749Z,4.95
2022-07-29T17:40:39.334Z,4.93
2022-07-29T17:43:41.872Z,8.52
2022-07-29T17:46:43.508Z,8.13
2022-07-29T17:49:45.632Z,8.68
2022-07-29T17:52:47.349Z,6.20
2022-07-29T17:55:49.667Z,6.15
2022-07-29T17:58:51.658Z,6.80
2022-07-29T18:01:53.390Z,5.38
2022-07-29T18:04:56.336Z,5.17
2022-07-29T18:07:58.021Z,4.97
2022-07-29T18:10:59.676Z,5.20
2022-07-29T18:14:02.580Z,5.10
2022-07-29T18:17:04.274Z,5.63
2022-07-29T18:20:06.162Z,4.80
2022-07-29T18:23:07.874Z,5.77
2022-07-29T18:26:09.685Z,6.63
2022-07-29T18:29:11.696Z,7.73
2022-07-29T18:32:13.314Z,5.47
2022-07-29T18:35:15.244Z,5.30
2022-07-29T18:38:17.081Z,5.37
2022-07-29T18:41:18.715Z,6.30
2022-07-29T18:44:21.829Z,5.00
2022-07-29T18:47:24.275Z,5.20
2022-07-29T18:50:34.096Z,5.20
2022-07-29T18:53:35.973Z,5.83
2022-07-29T18:56:38.767Z,5.47
2022-07-29T18:59:40.455Z,32.87
2022-07-29T19:02:42.269Z,6.73
2022-07-29T19:05:44.189Z,11.90
2022-07-29T19:08:45.798Z,10.33
2022-07-29T19:11:47.603Z,5.10
2022-07-29T19:14:49.214Z,6.83
2022-07-29T19:17:50.919Z,14.60
2022-07-29T19:20:53.706Z,19.37
2022-07-29T19:24:01.807Z,17.03
2022-07-29T19:27:10.104Z,22.07
2022-07-29T19:30:11.970Z,25.40
2022-07-29T19:33:14.679Z,14.00
2022-07-29T19:36:16.764Z,5.63
2022-07-29T19:39:18.375Z,6.00
2022-07-29T19:42:36.712Z,6.20
2022-07-29T19:45:38.449Z,6.00
2022-07-29T19:48:40.147Z,5.57
2022-07-29T19:51:41.890Z,4.83
2022-07-29T19:54:43.478Z,5.13
2022-07-29T19:57:45.294Z,5.37
2022-07-29T20:00:47.265Z,5.00
2022-07-29T20:03:48.958Z,5.50
2022-07-29T20:06:50.679Z,4.90
2022-07-29T20:09:54.920Z,5.00
2022-07-29T20:12:56.525Z,4.73
2022-07-29T20:15:58.374Z,4.87
2022-07-29T20:19:00.091Z,5.43
2022-07-29T20:22:01.890Z,4.97
2022-07-29T20:25:04.131Z,5.60
2022-07-29T20:28:05.728Z,5.00
2022-07-29T20:31:07.414Z,5.13
2022-07-29T20:34:09.867Z,4.70
2022-07-29T20:37:13.363Z,4.63
2022-07-29T20:40:15.342Z,5.20
2022-07-29T20:43:16.972Z,5.20
2022-07-29T20:46:18.788Z,4.73
2022-07-29T20:49:20.522Z,4.97
2022-07-29T20:52:23.441Z,4.80
2022-07-29T20:55:25.144Z,4.97
2022-07-29T20:58:26.981Z,5.07
2022-07-29T21:01:28.609Z,4.60
2022-07-29T21:04:30.937Z,4.67
2022-07-29T21:07:34.377Z,4.73
2022-07-29T21:10:35.971Z,4.77
2022-07-29T21:13:41.031Z,5.10
2022-07-29T21:16:42.612Z,4.90
2022-07-29T21:19:44.348Z,5.47
2022-07-29T21:22:46.006Z,4.87
2022-07-29T21:25:47.627Z,4.70
2022-07-29T21:28:50.589Z,5.17
2022-07-29T21:31:52.309Z,5.23
2022-07-29T21:34:53.931Z,4.60
2022-07-29T21:37:55.568Z,5.03
2022-07-29T21:40:58.604Z,4.77
2022-07-29T21:44:01.278Z,4.93
2022-07-29T21:47:03.716Z,4.50
2022-07-29T21:50:05.709Z,4.87
2022-07-29T21:53:07.315Z,4.80
2022-07-29T21:56:14.743Z,5.23
2022-07-29T21:59:16.877Z,5.23
2022-07-29T22:02:18.616Z,5.60
2022-07-29T22:05:20.472Z,5.90
2022-07-29T22:08:22.054Z,4.77
2022-07-29T22:11:23.737Z,4.90
2022-07-29T22:14:25.568Z,6.43
2022-07-29T22:17:27.261Z,3.97
2022-07-29T22:20:29.056Z,4.80
2022-07-29T22:23:30.958Z,5.37
2022-07-29T22:26:33.439Z,4.50
2022-07-29T22:29:35.166Z,4.73
2022-07-29T22:32:37.050Z,4.70
2022-07-29T22:35:38.738Z,4.80
2022-07-29T22:38:40.368Z,4.67
2022-07-29T22:41:42.020Z,4.80
2022-07-29T22:44:43.623Z,5.73
2022-07-29T22:47:48.484Z,4.80
2022-07-29T22:50:50.445Z,5.23
2022-07-29T22:53:52.083Z,4.70
2022-07-29T22:56:53.718Z,4.67
2022-07-29T22:59:55.403Z,5.37
2022-07-29T23:02:57.016Z,4.83
2022-07-29T23:05:58.693Z,4.90
2022-07-29T23:09:00.412Z,4.97
2022-07-29T23:12:02.007Z,5.33
2022-07-29T23:15:04.646Z,4.93
2022-07-29T23:18:06.347Z,4.50
2022-07-29T23:21:08.197Z,5.10
2022-07-29T23:24:10.616Z,4.60
2022-07-29T23:27:12.303Z,5.13
2022-07-29T23:30:14.131Z,4.77
2022-07-29T23:33:15.819Z,5.30
2022-07-29T23:36:19.736Z,5.07
2022-07-29T23:39:21.435Z,5.07
2022-07-29T23:42:23.159Z,5.47
2022-07-29T23:45:42.462Z,5.20
2022-07-29T23:48:46.454Z,5.90
2022-07-29T23:51:48.052Z,5.67
2022-07-29T23:54:49.682Z,5.73
2022-07-29T23:57:51.348Z,5.70
